Port Matilda, Pennsylvania
Current Conditions -  °F | °C
As of 2:15 AM on Sunday 23 Nov 2014 (Local Time) from KUNV Reporting Station
Overcast Overcast  
Wind Chill: 33°   Ceiling: 6000
Heat Index: 33°   Visibility: 10mi
Dew Point: 28°   Wind: 3mph
Humidity: 82%   Direction: 290°WNW
Pressure: 30.12"   Gusts: NA
Location:  40.8°N, 78.05°W
Report Text: KUNV 230715Z AUTO 29003KT 10SM BKN060 OVC070 00/M02 A3012 RMK AO2 T00031024
Loading
Personal Weather Stations






























Interactive Weather Map New forecast layout! Learn more

10-Day Weather Forecast

Advertisements
Track Severe Weather on mobile